sensor_id;sensor_type;location;lat;lon;timestamp;pressure;altitude;pressure_sealevel;temperature;humidity
6395;BME280;3230;42.588;23.358;2023-01-15T00:01:02;91334.69;;;1.72;100.00
6395;BME280;3230;42.588;23.358;2023-01-15T00:03:28;91334.25;;;1.75;100.00
6395;BME280;3230;42.588;23.358;2023-01-15T00:05:54;91337.84;;;1.74;100.00
6395;BME280;3230;42.588;23.358;2023-01-15T00:08:19;91337.69;;;1.94;100.00
6395;BME280;3230;42.588;23.358;2023-01-15T00:10:44;91336.03;;;2.00;100.00
6395;BME280;3230;42.588;23.358;2023-01-15T00:13:10;91332.44;;;2.01;100.00
6395;BME280;3230;42.588;23.358;2023-01-15T00:15:35;91329.06;;;1.82;100.00
6395;BME280;3230;42.588;23.358;2023-01-15T00:18:01;91332.88;;;1.98;100.00
6395;BME280;3230;42.588;23.358;2023-01-15T00:20:26;91327.47;;;1.99;100.00
6395;BME280;3230;42.588;23.358;2023-01-15T00:22:52;91327.94;;;1.96;100.00
6395;BME280;3230;42.588;23.358;2023-01-15T00:25:18;91333.25;;;2.01;100.00
6395;BME280;3230;42.588;23.358;2023-01-15T00:28:02;91325.47;;;2.01;100.00
6395;BME280;3230;42.588;23.358;2023-01-15T00:30:28;91329.06;;;2.00;100.00
6395;BME280;3230;42.588;23.358;2023-01-15T00:32:53;91327.56;;;1.92;100.00
6395;BME280;3230;42.588;23.358;2023-01-15T00:35:20;91325.22;;;2.10;100.00
6395;BME280;3230;42.588;23.358;2023-01-15T00:37:46;91324.72;;;2.19;100.00
6395;BME280;3230;42.588;23.358;2023-01-15T00:40:13;91326.00;;;2.10;100.00
6395;BME280;3230;42.588;23.358;2023-01-15T00:42:39;91327.94;;;2.15;100.00
6395;BME280;3230;42.588;23.358;2023-01-15T00:45:06;91333.25;;;2.01;100.00
6395;BME280;3230;42.588;23.358;2023-01-15T00:47:35;91326.63;;;1.87;100.00
6395;BME280;3230;42.588;23.358;2023-01-15T00:50:02;91318.16;;;1.98;100.00
6395;BME280;3230;42.588;23.358;2023-01-15T00:52:28;91315.50;;;2.05;100.00
6395;BME280;3230;42.588;23.358;2023-01-15T00:54:53;91318.66;;;2.07;100.00
6395;BME280;3230;42.588;23.358;2023-01-15T00:57:19;91321.69;;;2.04;100.00
6395;BME280;3230;42.588;23.358;2023-01-15T00:59:44;91315.41;;;1.93;100.00
6395;BME280;3230;42.588;23.358;2023-01-15T01:02:09;91320.66;;;1.86;100.00
6395;BME280;3230;42.588;23.358;2023-01-15T01:04:35;91319.50;;;1.82;100.00
6395;BME280;3230;42.588;23.358;2023-01-15T01:07:00;91328.59;;;1.85;100.00
6395;BME280;3230;42.588;23.358;2023-01-15T01:09:25;91312.97;;;1.80;100.00
6395;BME280;3230;42.588;23.358;2023-01-15T01:11:51;91320.34;;;1.76;100.00
6395;BME280;3230;42.588;23.358;2023-01-15T01:14:16;91320.72;;;1.80;100.00
6395;BME280;3230;42.588;23.358;2023-01-15T01:16:42;91323.81;;;1.88;100.00
6395;BME280;3230;42.588;23.358;2023-01-15T01:19:10;91319.72;;;1.81;100.00
6395;BME280;3230;42.588;23.358;2023-01-15T01:21:37;91322.56;;;1.72;100.00
6395;BME280;3230;42.588;23.358;2023-01-15T01:24:03;91319.13;;;1.79;100.00
6395;BME280;3230;42.588;23.358;2023-01-15T01:26:29;91298.31;;;1.73;100.00
6395;BME280;3230;42.588;23.358;2023-01-15T01:28:55;91314.28;;;1.89;100.00
6395;BME280;3230;42.588;23.358;2023-01-15T01:31:22;91308.97;;;2.02;100.00
6395;BME280;3230;42.588;23.358;2023-01-15T01:33:49;91311.63;;;2.14;100.00
6395;BME280;3230;42.588;23.358;2023-01-15T01:36:15;91308.03;;;2.15;100.00
6395;BME280;3230;42.588;23.358;2023-01-15T01:38:40;91306.09;;;2.11;100.00
6395;BME280;3230;42.588;23.358;2023-01-15T01:41:05;91300.13;;;2.10;100.00
6395;BME280;3230;42.588;23.358;2023-01-15T01:43:51;91305.16;;;2.23;100.00
6395;BME280;3230;42.588;23.358;2023-01-15T01:46:17;91303.94;;;2.07;100.00
6395;BME280;3230;42.588;23.358;2023-01-15T01:48:43;91304.94;;;2.25;100.00
6395;BME280;3230;42.588;23.358;2023-01-15T01:51:09;91302.44;;;2.18;100.00
6395;BME280;3230;42.588;23.358;2023-01-15T01:53:36;91301.28;;;2.14;100.00
6395;BME280;3230;42.588;23.358;2023-01-15T01:56:02;91304.53;;;2.10;100.00
6395;BME280;3230;42.588;23.358;2023-01-15T01:58:29;91299.88;;;2.00;100.00
6395;BME280;3230;42.588;23.358;2023-01-15T02:00:58;91309.16;;;2.01;100.00
6395;BME280;3230;42.588;23.358;2023-01-15T02:03:29;91291.56;;;1.91;100.00
6395;BME280;3230;42.588;23.358;2023-01-15T02:05:58;91299.50;;;1.96;100.00
6395;BME280;3230;42.588;23.358;2023-01-15T02:08:25;91299.41;;;2.03;100.00
6395;BME280;3230;42.588;23.358;2023-01-15T02:10:53;91306.81;;;1.99;100.00
6395;BME280;3230;42.588;23.358;2023-01-15T02:13:33;91311.06;;;2.12;100.00
6395;BME280;3230;42.588;23.358;2023-01-15T02:16:07;91306.44;;;2.14;100.00
6395;BME280;3230;42.588;23.358;2023-01-15T02:18:42;91308.75;;;2.04;100.00
6395;BME280;3230;42.588;23.358;2023-01-15T02:27:09;91304.72;;;1.89;100.00
6395;BME280;3230;42.588;23.358;2023-01-15T02:32:22;91300.88;;;1.99;100.00
6395;BME280;3230;42.588;23.358;2023-01-15T02:34:53;91285.78;;;1.96;100.00
6395;BME280;3230;42.588;23.358;2023-01-15T02:37:27;91301.00;;;2.04;100.00
6395;BME280;3230;42.588;23.358;2023-01-15T02:39:57;91305.03;;;2.00;100.00
6395;BME280;3230;42.588;23.358;2023-01-15T02:42:26;91303.13;;;1.88;100.00
6395;BME280;3230;42.588;23.358;2023-01-15T02:44:53;91299.31;;;1.91;100.00
6395;BME280;3230;42.588;23.358;2023-01-15T02:47:24;91288.22;;;1.90;100.00
6395;BME280;3230;42.588;23.358;2023-01-15T02:49:53;91298.19;;;2.24;100.00
6395;BME280;3230;42.588;23.358;2023-01-15T02:52:24;91299.94;;;2.30;100.00
6395;BME280;3230;42.588;23.358;2023-01-15T02:55:20;91292.66;;;2.39;100.00
6395;BME280;3230;42.588;23.358;2023-01-15T02:57:50;91285.19;;;2.31;100.00
6395;BME280;3230;42.588;23.358;2023-01-15T03:00:20;91303.06;;;2.32;100.00
6395;BME280;3230;42.588;23.358;2023-01-15T03:02:55;91294.97;;;2.10;100.00
6395;BME280;3230;42.588;23.358;2023-01-15T03:05:31;91289.06;;;1.84;100.00
6395;BME280;3230;42.588;23.358;2023-01-15T03:08:00;91291.78;;;1.71;100.00
6395;BME280;3230;42.588;23.358;2023-01-15T03:10:41;91277.13;;;1.65;100.00
6395;BME280;3230;42.588;23.358;2023-01-15T03:13:20;91284.94;;;1.58;100.00
6395;BME280;3230;42.588;23.358;2023-01-15T03:16:42;91289.50;;;1.56;100.00
6395;BME280;3230;42.588;23.358;2023-01-15T03:19:32;91291.41;;;1.67;100.00
6395;BME280;3230;42.588;23.358;2023-01-15T03:24:55;91291.91;;;1.57;100.00
6395;BME280;3230;42.588;23.358;2023-01-15T03:27:21;91291.56;;;1.47;100.00
6395;BME280;3230;42.588;23.358;2023-01-15T03:29:50;91295.47;;;1.56;100.00
6395;BME280;3230;42.588;23.358;2023-01-15T03:32:17;91289.50;;;1.56;100.00
6395;BME280;3230;42.588;23.358;2023-01-15T03:34:50;91289.59;;;1.49;100.00
6395;BME280;3230;42.588;23.358;2023-01-15T03:37:18;91290.09;;;1.58;100.00
6395;BME280;3230;42.588;23.358;2023-01-15T03:39:44;91300.53;;;1.70;100.00
6395;BME280;3230;42.588;23.358;2023-01-15T03:42:56;91299.69;;;1.76;100.00
6395;BME280;3230;42.588;23.358;2023-01-15T03:52:47;91303.53;;;1.67;100.00
6395;BME280;3230;42.588;23.358;2023-01-15T03:55:18;91301.25;;;1.58;100.00
6395;BME280;3230;42.588;23.358;2023-01-15T03:57:56;91300.00;;;1.86;100.00
6395;BME280;3230;42.588;23.358;2023-01-15T04:00:27;91290.44;;;1.87;100.00
6395;BME280;3230;42.588;23.358;2023-01-15T04:02:56;91295.34;;;1.95;100.00
6395;BME280;3230;42.588;23.358;2023-01-15T04:05:23;91298.19;;;2.05;100.00
6395;BME280;3230;42.588;23.358;2023-01-15T04:07:51;91300.03;;;1.80;100.00
6395;BME280;3230;42.588;23.358;2023-01-15T04:10:19;91295.47;;;1.82;100.00
6395;BME280;3230;42.588;23.358;2023-01-15T04:12:44;91292.03;;;1.63;100.00
6395;BME280;3230;42.588;23.358;2023-01-15T04:15:11;91284.94;;;1.76;100.00
6395;BME280;3230;42.588;23.358;2023-01-15T04:17:37;91291.88;;;1.83;100.00
6395;BME280;3230;42.588;23.358;2023-01-15T04:20:02;91285.25;;;2.05;100.00
6395;BME280;3230;42.588;23.358;2023-01-15T04:22:28;91289.06;;;1.84;100.00
6395;BME280;3230;42.588;23.358;2023-01-15T04:24:55;91290.53;;;1.99;100.00
6395;BME280;3230;42.588;23.358;2023-01-15T04:27:20;91294.09;;;1.98;100.00
6395;BME280;3230;42.588;23.358;2023-01-15T04:29:46;91294.91;;;1.73;100.00
6395;BME280;3230;42.588;23.358;2023-01-15T04:32:11;91294.41;;;1.64;100.00
6395;BME280;3230;42.588;23.358;2023-01-15T04:34:39;91301.25;;;1.58;100.00
6395;BME280;3230;42.588;23.358;2023-01-15T04:37:05;91300.31;;;1.46;100.00
6395;BME280;3230;42.588;23.358;2023-01-15T04:39:30;91299.53;;;1.46;100.00
6395;BME280;3230;42.588;23.358;2023-01-15T04:41:56;91300.75;;;1.43;100.00
6395;BME280;3230;42.588;23.358;2023-01-15T04:44:40;91291.00;;;1.20;100.00
6395;BME280;3230;42.588;23.358;2023-01-15T04:47:05;91303.13;;;1.19;100.00
6395;BME280;3230;42.588;23.358;2023-01-15T04:49:33;91310.81;;;1.26;100.00
6395;BME280;3230;42.588;23.358;2023-01-15T04:51:58;91315.91;;;1.33;100.00
6395;BME280;3230;42.588;23.358;2023-01-15T04:54:24;91311.13;;;1.36;100.00
6395;BME280;3230;42.588;23.358;2023-01-15T04:56:51;91305.34;;;1.41;100.00
6395;BME280;3230;42.588;23.358;2023-01-15T04:59:19;91306.88;;;1.49;100.00
6395;BME280;3230;42.588;23.358;2023-01-15T05:01:45;91305.19;;;1.36;100.00
6395;BME280;3230;42.588;23.358;2023-01-15T05:04:10;91306.06;;;1.23;100.00
6395;BME280;3230;42.588;23.358;2023-01-15T05:06:36;91295.00;;;1.16;100.00
6395;BME280;3230;42.588;23.358;2023-01-15T05:09:03;91295.38;;;1.19;100.00
6395;BME280;3230;42.588;23.358;2023-01-15T05:11:28;91295.00;;;1.16;100.00
6395;BME280;3230;42.588;23.358;2023-01-15T05:13:54;91301.13;;;1.21;100.00
6395;BME280;3230;42.588;23.358;2023-01-15T05:16:25;91304.03;;;1.32;100.00
6395;BME280;3230;42.588;23.358;2023-01-15T05:18:52;91297.66;;;1.34;100.00
6395;BME280;3230;42.588;23.358;2023-01-15T05:21:23;91302.44;;;1.31;100.00
6395;BME280;3230;42.588;23.358;2023-01-15T05:23:50;91300.50;;;1.26;100.00
6395;BME280;3230;42.588;23.358;2023-01-15T05:26:17;91292.91;;;1.31;100.00
6395;BME280;3230;42.588;23.358;2023-01-15T05:28:43;91298.28;;;1.30;100.00
6395;BME280;3230;42.588;23.358;2023-01-15T05:31:11;91306.19;;;1.35;100.00
6395;BME280;3230;42.588;23.358;2023-01-15T05:33:37;91296.91;;;1.27;100.00
6395;BME280;3230;42.588;23.358;2023-01-15T05:36:06;91299.88;;;1.31;100.00
6395;BME280;3230;42.588;23.358;2023-01-15T05:38:32;91293.88;;;1.37;100.00
6395;BME280;3230;42.588;23.358;2023-01-15T05:40:58;91294.50;;;1.32;100.00
6395;BME280;3230;42.588;23.358;2023-01-15T05:43:24;91294.44;;;1.39;100.00
6395;BME280;3230;42.588;23.358;2023-01-15T05:45:49;91286.97;;;1.31;100.00
6395;BME280;3230;42.588;23.358;2023-01-15T05:48:14;91292.69;;;1.33;100.00
6395;BME280;3230;42.588;23.358;2023-01-15T05:50:40;91288.72;;;1.30;100.00
6395;BME280;3230;42.588;23.358;2023-01-15T05:53:06;91285.31;;;1.36;100.00
6395;BME280;3230;42.588;23.358;2023-01-15T05:55:31;91295.44;;;1.38;100.00
6395;BME280;3230;42.588;23.358;2023-01-15T05:57:57;91299.50;;;1.52;100.00
6395;BME280;3230;42.588;23.358;2023-01-15T06:00:23;91305.81;;;1.56;100.00
6395;BME280;3230;42.588;23.358;2023-01-15T06:02:48;91314.53;;;1.62;100.00
6395;BME280;3230;42.588;23.358;2023-01-15T06:05:15;91308.50;;;1.68;100.00
6395;BME280;3230;42.588;23.358;2023-01-15T06:07:46;91313.97;;;1.79;100.00
6395;BME280;3230;42.588;23.358;2023-01-15T06:10:12;91317.66;;;1.64;100.00
6395;BME280;3230;42.588;23.358;2023-01-15T06:12:37;91313.19;;;1.53;100.00
6395;BME280;3230;42.588;23.358;2023-01-15T06:15:03;91307.41;;;1.57;100.00
6395;BME280;3230;42.588;23.358;2023-01-15T06:17:28;91311.03;;;1.50;100.00
6395;BME280;3230;42.588;23.358;2023-01-15T06:19:53;91309.66;;;1.47;100.00
6395;BME280;3230;42.588;23.358;2023-01-15T06:22:19;91313.22;;;1.71;100.00
6395;BME280;3230;42.588;23.358;2023-01-15T06:24:44;91306.81;;;1.55;100.00
6395;BME280;3230;42.588;23.358;2023-01-15T06:27:09;91309.34;;;1.62;100.00
6395;BME280;3230;42.588;23.358;2023-01-15T06:29:35;91311.75;;;1.82;100.00
6395;BME280;3230;42.588;23.358;2023-01-15T06:32:00;91313.69;;;2.05;100.00
6395;BME280;3230;42.588;23.358;2023-01-15T06:34:25;91313.06;;;1.91;100.00
6395;BME280;3230;42.588;23.358;2023-01-15T06:36:51;91307.56;;;1.81;100.00
6395;BME280;3230;42.588;23.358;2023-01-15T06:39:16;91308.38;;;1.82;100.00
6395;BME280;3230;42.588;23.358;2023-01-15T06:41:41;91314.69;;;1.86;100.00
6395;BME280;3230;42.588;23.358;2023-01-15T06:44:25;91315.31;;;1.81;100.00
6395;BME280;3230;42.588;23.358;2023-01-15T06:47:19;91301.72;;;1.92;100.00
6395;BME280;3230;42.588;23.358;2023-01-15T06:49:47;91311.69;;;2.07;100.00
6395;BME280;3230;42.588;23.358;2023-01-15T06:52:12;91328.44;;;2.05;100.00
6395;BME280;3230;42.588;23.358;2023-01-15T06:54:38;91321.22;;;2.07;100.00
6395;BME280;3230;42.588;23.358;2023-01-15T06:57:03;91315.63;;;2.29;100.00
6395;BME280;3230;42.588;23.358;2023-01-15T06:59:29;91315.72;;;2.40;100.00
6395;BME280;3230;42.588;23.358;2023-01-15T07:01:55;91319.53;;;2.38;100.00
6395;BME280;3230;42.588;23.358;2023-01-15T07:04:20;91317.81;;;2.32;100.00
6395;BME280;3230;42.588;23.358;2023-01-15T07:06:46;91320.63;;;2.30;100.00
6395;BME280;3230;42.588;23.358;2023-01-15T07:09:11;91313.50;;;2.44;100.00
6395;BME280;3230;42.588;23.358;2023-01-15T07:11:36;91325.56;;;2.50;100.00
6395;BME280;3230;42.588;23.358;2023-01-15T07:14:18;91311.78;;;2.19;100.00
6395;BME280;3230;42.588;23.358;2023-01-15T07:16:44;91313.91;;;2.41;100.00
6395;BME280;3230;42.588;23.358;2023-01-15T07:19:09;91324.25;;;2.41;100.00
6395;BME280;3230;42.588;23.358;2023-01-15T07:21:35;91323.56;;;2.52;100.00
6395;BME280;3230;42.588;23.358;2023-01-15T07:24:00;91323.56;;;2.52;100.00
6395;BME280;3230;42.588;23.358;2023-01-15T07:26:26;91313.78;;;2.36;100.00
6395;BME280;3230;42.588;23.358;2023-01-15T07:28:52;91315.78;;;2.52;100.00
6395;BME280;3230;42.588;23.358;2023-01-15T07:31:18;91313.69;;;2.61;100.00
6395;BME280;3230;42.588;23.358;2023-01-15T07:33:43;91314.88;;;3.08;100.00
6395;BME280;3230;42.588;23.358;2023-01-15T07:36:09;91324.63;;;3.24;98.88
6395;BME280;3230;42.588;23.358;2023-01-15T07:38:34;91326.47;;;3.47;99.03
6395;BME280;3230;42.588;23.358;2023-01-15T07:41:00;91324.34;;;3.68;97.92
6395;BME280;3230;42.588;23.358;2023-01-15T07:43:44;91324.69;;;3.83;96.17
6395;BME280;3230;42.588;23.358;2023-01-15T07:46:29;91331.91;;;4.17;96.67
6395;BME280;3230;42.588;23.358;2023-01-15T07:49:13;91335.59;;;4.33;96.50
6395;BME280;3230;42.588;23.358;2023-01-15T07:51:57;91328.38;;;4.35;95.46
6395;BME280;3230;42.588;23.358;2023-01-15T07:54:23;91334.50;;;4.82;92.25
6395;BME280;3230;42.588;23.358;2023-01-15T07:56:50;91334.47;;;4.93;92.15
6395;BME280;3230;42.588;23.358;2023-01-15T07:59:17;91337.06;;;4.93;92.57
6395;BME280;3230;42.588;23.358;2023-01-15T08:01:42;91335.50;;;4.80;94.02
6395;BME280;3230;42.588;23.358;2023-01-15T08:04:07;91332.91;;;4.80;94.62
6395;BME280;3230;42.588;23.358;2023-01-15T08:06:34;91330.22;;;4.75;94.78
6395;BME280;3230;42.588;23.358;2023-01-15T08:08:59;91337.03;;;4.53;95.55
6395;BME280;3230;42.588;23.358;2023-01-15T08:11:25;91335.25;;;4.94;93.45
6395;BME280;3230;42.588;23.358;2023-01-15T08:14:09;91338.13;;;4.69;94.42
6395;BME280;3230;42.588;23.358;2023-01-15T08:16:53;91340.50;;;4.70;94.19
6395;BME280;3230;42.588;23.358;2023-01-15T08:19:18;91338.84;;;4.64;93.78
6395;BME280;3230;42.588;23.358;2023-01-15T08:21:44;91333.78;;;4.45;94.69
6395;BME280;3230;42.588;23.358;2023-01-15T08:24:09;91343.72;;;4.25;96.34
6395;BME280;3230;42.588;23.358;2023-01-15T08:26:35;91351.16;;;4.33;94.21
6395;BME280;3230;42.588;23.358;2023-01-15T08:29:00;91349.28;;;4.16;95.05
6395;BME280;3230;42.588;23.358;2023-01-15T08:31:25;91348.94;;;4.01;95.39
6395;BME280;3230;42.588;23.358;2023-01-15T08:33:51;91351.84;;;3.93;95.93
6395;BME280;3230;42.588;23.358;2023-01-15T08:36:16;91356.69;;;3.89;96.09
6395;BME280;3230;42.588;23.358;2023-01-15T08:38:42;91352.88;;;4.04;96.47
6395;BME280;3230;42.588;23.358;2023-01-15T08:41:08;91350.06;;;4.05;96.43
6395;BME280;3230;42.588;23.358;2023-01-15T08:43:33;91342.94;;;4.00;96.77
6395;BME280;3230;42.588;23.358;2023-01-15T08:46:00;91344.53;;;4.13;97.15
6395;BME280;3230;42.588;23.358;2023-01-15T08:48:28;91341.94;;;4.13;96.10
6395;BME280;3230;42.588;23.358;2023-01-15T08:50:53;91341.50;;;4.16;96.38
6395;BME280;3230;42.588;23.358;2023-01-15T08:53:19;91344.06;;;4.28;95.81
6395;BME280;3230;42.588;23.358;2023-01-15T08:55:45;91334.94;;;4.14;96.48
6395;BME280;3230;42.588;23.358;2023-01-15T08:58:11;91341.16;;;4.13;97.44
6395;BME280;3230;42.588;23.358;2023-01-15T09:00:36;91336.97;;;4.00;96.43
6395;BME280;3230;42.588;23.358;2023-01-15T09:03:02;91351.63;;;3.82;96.67
6395;BME280;3230;42.588;23.358;2023-01-15T09:05:27;91341.94;;;4.02;97.09
6395;BME280;3230;42.588;23.358;2023-01-15T09:07:53;91344.31;;;4.03;97.30
6395;BME280;3230;42.588;23.358;2023-01-15T09:10:19;91342.81;;;4.31;95.98
6395;BME280;3230;42.588;23.358;2023-01-15T09:12:45;91348.72;;;4.14;95.96
6395;BME280;3230;42.588;23.358;2023-01-15T09:15:11;91349.16;;;4.23;95.67
6395;BME280;3230;42.588;23.358;2023-01-15T09:17:36;91335.69;;;4.38;95.10
6395;BME280;3230;42.588;23.358;2023-01-15T09:20:05;91335.75;;;4.26;95.02
6395;BME280;3230;42.588;23.358;2023-01-15T09:22:31;91335.78;;;4.55;94.96
6395;BME280;3230;42.588;23.358;2023-01-15T09:24:57;91331.16;;;4.57;95.32
6395;BME280;3230;42.588;23.358;2023-01-15T09:27:22;91326.16;;;4.68;94.51
6395;BME280;3230;42.588;23.358;2023-01-15T09:29:48;91338.47;;;4.72;94.02
6395;BME280;3230;42.588;23.358;2023-01-15T09:32:13;91335.50;;;4.80;93.62
6395;BME280;3230;42.588;23.358;2023-01-15T09:34:38;91327.97;;;4.67;94.17
6395;BME280;3230;42.588;23.358;2023-01-15T09:37:04;91324.78;;;4.77;94.30
6395;BME280;3230;42.588;23.358;2023-01-15T09:39:30;91325.13;;;5.09;92.08
6395;BME280;3230;42.588;23.358;2023-01-15T09:47:39;91311.13;;;4.82;93.29
6395;BME280;3230;42.588;23.358;2023-01-15T09:55:25;91298.25;;;4.75;93.49
6395;BME280;3230;42.588;23.358;2023-01-15T09:57:55;91296.91;;;4.72;94.05
6395;BME280;3230;42.588;23.358;2023-01-15T10:00:24;91286.28;;;4.57;95.15
6395;BME280;3230;42.588;23.358;2023-01-15T10:05:39;91285.63;;;4.50;94.40
6395;BME280;3230;42.588;23.358;2023-01-15T10:08:29;91275.28;;;4.67;94.71
6395;BME280;3230;42.588;23.358;2023-01-15T10:11:04;91266.75;;;4.83;93.96
6395;BME280;3230;42.588;23.358;2023-01-15T10:13:55;91266.66;;;4.78;93.43
6395;BME280;3230;42.588;23.358;2023-01-15T10:16:28;91259.66;;;4.78;94.35
6395;BME280;3230;42.588;23.358;2023-01-15T10:18:54;91263.88;;;4.96;92.80
6395;BME280;3230;42.588;23.358;2023-01-15T10:26:58;91243.13;;;5.31;91.86
6395;BME280;3230;42.588;23.358;2023-01-15T10:29:45;91237.69;;;5.15;92.50
6395;BME280;3230;42.588;23.358;2023-01-15T10:35:10;91234.69;;;5.23;92.37
6395;BME280;3230;42.588;23.358;2023-01-15T10:37:55;91241.97;;;5.55;90.75
6395;BME280;3230;42.588;23.358;2023-01-15T10:45:46;91223.00;;;4.92;90.96
6395;BME280;3230;42.588;23.358;2023-01-15T10:50:54;91217.19;;;4.85;94.46
6395;BME280;3230;42.588;23.358;2023-01-15T10:53:38;91206.03;;;5.35;92.94
6395;BME280;3230;42.588;23.358;2023-01-15T10:59:20;91213.78;;;6.03;89.11
6395;BME280;3230;42.588;23.358;2023-01-15T11:01:50;91204.03;;;5.76;89.10
6395;BME280;3230;42.588;23.358;2023-01-15T11:04:16;91197.16;;;5.87;89.75
6395;BME280;3230;42.588;23.358;2023-01-15T11:06:42;91200.00;;;6.03;89.64
6395;BME280;3230;42.588;23.358;2023-01-15T11:09:20;91189.41;;;5.92;89.61
6395;BME280;3230;42.588;23.358;2023-01-15T11:12:05;91189.63;;;6.08;89.34
6395;BME280;3230;42.588;23.358;2023-01-15T11:14:41;91183.91;;;5.89;89.29
6395;BME280;3230;42.588;23.358;2023-01-15T11:17:45;91173.31;;;6.13;89.15
6395;BME280;3230;42.588;23.358;2023-01-15T11:20:34;91178.75;;;6.61;87.48
6395;BME280;3230;42.588;23.358;2023-01-15T11:23:11;91176.41;;;6.59;85.42
6395;BME280;3230;42.588;23.358;2023-01-15T11:25:38;91182.78;;;6.46;85.92
6395;BME280;3230;42.588;23.358;2023-01-15T11:28:11;91174.50;;;6.27;87.39
6395;BME280;3230;42.588;23.358;2023-01-15T11:30:39;91164.34;;;6.26;88.38
6395;BME280;3230;42.588;23.358;2023-01-15T11:33:23;91167.13;;;6.19;88.81
6395;BME280;3230;42.588;23.358;2023-01-15T11:35:57;91162.00;;;6.02;88.09
6395;BME280;3230;42.588;23.358;2023-01-15T11:38:28;91153.09;;;5.81;88.97
6395;BME280;3230;42.588;23.358;2023-01-15T11:41:00;91152.69;;;5.89;89.72
6395;BME280;3230;42.588;23.358;2023-01-15T11:43:27;91155.97;;;5.79;89.80
6395;BME280;3230;42.588;23.358;2023-01-15T11:46:29;91150.91;;;6.12;88.89
6395;BME280;3230;42.588;23.358;2023-01-15T11:49:16;91150.66;;;5.91;90.26
6395;BME280;3230;42.588;23.358;2023-01-15T11:52:02;91146.88;;;5.82;90.33
6395;BME280;3230;42.588;23.358;2023-01-15T11:54:31;91139.13;;;5.87;90.00
6395;BME280;3230;42.588;23.358;2023-01-15T11:57:01;91142.94;;;5.79;89.61
6395;BME280;3230;42.588;23.358;2023-01-15T11:59:26;91139.03;;;5.76;90.19
6395;BME280;3230;42.588;23.358;2023-01-15T12:04:28;91132.50;;;5.96;89.07
6395;BME280;3230;42.588;23.358;2023-01-15T12:06:55;91127.19;;;5.86;89.85
6395;BME280;3230;42.588;23.358;2023-01-15T12:12:26;91128.56;;;5.93;89.83
6395;BME280;3230;42.588;23.358;2023-01-15T12:15:11;91128.28;;;6.12;88.89
6395;BME280;3230;42.588;23.358;2023-01-15T12:21:52;91128.88;;;6.19;87.84
6395;BME280;3230;42.588;23.358;2023-01-15T12:26:26;91118.94;;;5.94;89.30
6395;BME280;3230;42.588;23.358;2023-01-15T12:29:07;91118.94;;;5.94;89.78
6395;BME280;3230;42.588;23.358;2023-01-15T12:31:43;91114.22;;;5.91;90.59
6395;BME280;3230;42.588;23.358;2023-01-15T12:36:51;91121.56;;;6.16;89.54
6395;BME280;3230;42.588;23.358;2023-01-15T12:39:25;91110.75;;;6.02;89.79
6395;BME280;3230;42.588;23.358;2023-01-15T12:41:55;91109.75;;;6.08;90.27
6395;BME280;3230;42.588;23.358;2023-01-15T12:45:11;91109.88;;;5.97;89.77
6395;BME280;3230;42.588;23.358;2023-01-15T12:53:01;91100.50;;;5.73;90.69
6395;BME280;3230;42.588;23.358;2023-01-15T12:55:30;91101.69;;;5.43;92.04
6395;BME280;3230;42.588;23.358;2023-01-15T12:58:00;91099.09;;;5.43;91.73
6395;BME280;3230;42.588;23.358;2023-01-15T13:00:33;91089.78;;;5.48;91.73
6395;BME280;3230;42.588;23.358;2023-01-15T13:03:26;91089.88;;;5.36;91.76
6395;BME280;3230;42.588;23.358;2023-01-15T13:06:00;91081.22;;;5.08;93.17
6395;BME280;3230;42.588;23.358;2023-01-15T13:10:54;91075.72;;;5.04;94.69
6395;BME280;3230;42.588;23.358;2023-01-15T13:13:28;91074.94;;;5.26;94.51
6395;BME280;3230;42.588;23.358;2023-01-15T13:16:15;91074.66;;;5.05;94.56
6395;BME280;3230;42.588;23.358;2023-01-15T13:21:26;91072.84;;;5.23;94.18
6395;BME280;3230;42.588;23.358;2023-01-15T13:29:43;91069.13;;;5.80;92.52
6395;BME280;3230;42.588;23.358;2023-01-15T13:32:18;91061.97;;;5.92;92.59
6395;BME280;3230;42.588;23.358;2023-01-15T13:34:59;91065.84;;;5.90;92.54
6395;BME280;3230;42.588;23.358;2023-01-15T13:37:50;91058.75;;;6.07;92.23
6395;BME280;3230;42.588;23.358;2023-01-15T13:40:22;91058.97;;;6.28;90.75
6395;BME280;3230;42.588;23.358;2023-01-15T13:42:50;91055.28;;;6.24;91.14
6395;BME280;3230;42.588;23.358;2023-01-15T13:47:47;91049.53;;;6.22;90.26
6395;BME280;3230;42.588;23.358;2023-01-15T13:50:25;91049.03;;;6.20;90.81
6395;BME280;3230;42.588;23.358;2023-01-15T13:53:15;91050.44;;;6.05;90.91
6395;BME280;3230;42.588;23.358;2023-01-15T13:55:51;91052.13;;;6.22;90.38
6395;BME280;3230;42.588;23.358;2023-01-15T13:58:26;91052.34;;;6.15;89.67
6395;BME280;3230;42.588;23.358;2023-01-15T14:01:02;91053.50;;;6.02;89.69
6395;BME280;3230;42.588;23.358;2023-01-15T14:03:30;91045.72;;;5.80;90.98
6395;BME280;3230;42.588;23.358;2023-01-15T14:05:58;91049.56;;;5.72;91.09
6395;BME280;3230;42.588;23.358;2023-01-15T14:08:37;91045.97;;;5.56;91.62
6395;BME280;3230;42.588;23.358;2023-01-15T14:11:03;91052.25;;;5.60;91.38
6395;BME280;3230;42.588;23.358;2023-01-15T14:13:38;91041.13;;;5.43;91.53
6395;BME280;3230;42.588;23.358;2023-01-15T14:19:14;91041.69;;;4.84;94.54
6395;BME280;3230;42.588;23.358;2023-01-15T14:27:09;91035.00;;;4.37;96.25
6395;BME280;3230;42.588;23.358;2023-01-15T14:35:00;91037.97;;;4.28;96.39
6395;BME280;3230;42.588;23.358;2023-01-15T14:37:30;91026.72;;;4.06;96.92
6395;BME280;3230;42.588;23.358;2023-01-15T14:39:59;91028.72;;;3.87;97.93
6395;BME280;3230;42.588;23.358;2023-01-15T14:42:30;91025.63;;;3.73;98.31
6395;BME280;3230;42.588;23.358;2023-01-15T14:45:34;91020.66;;;3.42;99.90
6395;BME280;3230;42.588;23.358;2023-01-15T14:48:03;91025.13;;;3.47;99.81
6395;BME280;3230;42.588;23.358;2023-01-15T14:50:38;91025.53;;;3.39;100.00
6395;BME280;3230;42.588;23.358;2023-01-15T14:58:15;91023.75;;;3.15;100.00
6395;BME280;3230;42.588;23.358;2023-01-15T15:00:44;91021.22;;;3.03;100.00
6395;BME280;3230;42.588;23.358;2023-01-15T15:03:17;91018.38;;;2.93;100.00
6395;BME280;3230;42.588;23.358;2023-01-15T15:05:45;91017.84;;;2.79;100.00
6395;BME280;3230;42.588;23.358;2023-01-15T15:08:15;91023.69;;;2.63;100.00
6395;BME280;3230;42.588;23.358;2023-01-15T15:10:45;91015.94;;;2.51;100.00
6395;BME280;3230;42.588;23.358;2023-01-15T15:13:35;91022.56;;;2.35;100.00
6395;BME280;3230;42.588;23.358;2023-01-15T15:16:24;91028.75;;;2.22;100.00